sensor_id;sensor_type;location;lat;lon;timestamp;P1;durP1;ratioP1;P2;durP2;ratioP2
14096;SDS011;7125;48.106;11.544;2022-07-23T00:01:26;8.43;;;7.75;;
14096;SDS011;7125;48.106;11.544;2022-07-23T00:03:53;8.13;;;7.40;;
14096;SDS011;7125;48.106;11.544;2022-07-23T00:06:21;8.15;;;6.25;;
14096;SDS011;7125;48.106;11.544;2022-07-23T00:08:48;9.60;;;6.75;;
14096;SDS011;7125;48.106;11.544;2022-07-23T00:11:16;7.82;;;7.13;;
14096;SDS011;7125;48.106;11.544;2022-07-23T00:13:43;6.88;;;6.28;;
14096;SDS011;7125;48.106;11.544;2022-07-23T00:16:10;7.07;;;6.47;;
14096;SDS011;7125;48.106;11.544;2022-07-23T00:18:37;10.88;;;6.82;;
14096;SDS011;7125;48.106;11.544;2022-07-23T00:21:04;6.78;;;6.28;;
14096;SDS011;7125;48.106;11.544;2022-07-23T00:23:31;9.05;;;8.15;;
14096;SDS011;7125;48.106;11.544;2022-07-23T00:25:58;7.75;;;6.35;;
14096;SDS011;7125;48.106;11.544;2022-07-23T00:28:26;10.15;;;7.00;;
14096;SDS011;7125;48.106;11.544;2022-07-23T00:30:53;7.57;;;6.88;;
14096;SDS011;7125;48.106;11.544;2022-07-23T00:33:20;7.18;;;6.35;;
14096;SDS011;7125;48.106;11.544;2022-07-23T00:35:47;8.77;;;6.25;;
14096;SDS011;7125;48.106;11.544;2022-07-23T00:38:14;7.25;;;6.63;;
14096;SDS011;7125;48.106;11.544;2022-07-23T00:40:41;6.68;;;6.07;;
14096;SDS011;7125;48.106;11.544;2022-07-23T00:43:08;8.32;;;7.53;;
14096;SDS011;7125;48.106;11.544;2022-07-23T00:45:36;7.95;;;6.75;;
14096;SDS011;7125;48.106;11.544;2022-07-23T00:48:03;6.38;;;5.88;;
14096;SDS011;7125;48.106;11.544;2022-07-23T00:50:30;7.88;;;6.07;;
14096;SDS011;7125;48.106;11.544;2022-07-23T00:52:57;7.32;;;6.57;;
14096;SDS011;7125;48.106;11.544;2022-07-23T00:55:24;6.72;;;6.13;;
14096;SDS011;7125;48.106;11.544;2022-07-23T00:57:51;7.38;;;6.78;;
14096;SDS011;7125;48.106;11.544;2022-07-23T01:00:20;5.80;;;5.40;;
14096;SDS011;7125;48.106;11.544;2022-07-23T01:02:48;7.95;;;6.82;;
14096;SDS011;7125;48.106;11.544;2022-07-23T01:05:15;6.43;;;5.93;;
14096;SDS011;7125;48.106;11.544;2022-07-23T01:07:42;6.85;;;6.30;;
14096;SDS011;7125;48.106;11.544;2022-07-23T01:10:10;8.82;;;6.53;;
14096;SDS011;7125;48.106;11.544;2022-07-23T01:12:51;6.32;;;5.82;;
14096;SDS011;7125;48.106;11.544;2022-07-23T01:15:18;6.32;;;5.72;;
14096;SDS011;7125;48.106;11.544;2022-07-23T01:17:45;8.10;;;7.32;;
14096;SDS011;7125;48.106;11.544;2022-07-23T01:20:13;9.82;;;8.13;;
14096;SDS011;7125;48.106;11.544;2022-07-23T01:22:41;11.30;;;7.47;;
14096;SDS011;7125;48.106;11.544;2022-07-23T01:25:09;14.77;;;8.05;;
14096;SDS011;7125;48.106;11.544;2022-07-23T01:27:39;18.40;;;7.22;;
14096;SDS011;7125;48.106;11.544;2022-07-23T01:30:07;13.77;;;7.85;;
14096;SDS011;7125;48.106;11.544;2022-07-23T01:32:35;16.50;;;6.68;;
14096;SDS011;7125;48.106;11.544;2022-07-23T01:35:02;7.05;;;6.28;;
14096;SDS011;7125;48.106;11.544;2022-07-23T01:37:30;9.00;;;5.50;;
14096;SDS011;7125;48.106;11.544;2022-07-23T01:39:58;8.90;;;5.88;;
14096;SDS011;7125;48.106;11.544;2022-07-23T01:42:25;6.85;;;5.00;;
14096;SDS011;7125;48.106;11.544;2022-07-23T01:44:52;6.13;;;5.70;;
14096;SDS011;7125;48.106;11.544;2022-07-23T01:47:20;8.50;;;6.38;;
14096;SDS011;7125;48.106;11.544;2022-07-23T01:49:51;6.22;;;5.32;;
14096;SDS011;7125;48.106;11.544;2022-07-23T01:52:37;7.55;;;5.47;;
14096;SDS011;7125;48.106;11.544;2022-07-23T01:55:08;6.80;;;6.28;;
14096;SDS011;7125;48.106;11.544;2022-07-23T01:57:38;8.65;;;6.28;;
14096;SDS011;7125;48.106;11.544;2022-07-23T02:00:06;6.60;;;6.03;;
14096;SDS011;7125;48.106;11.544;2022-07-23T02:02:44;9.15;;;6.13;;
14096;SDS011;7125;48.106;11.544;2022-07-23T02:05:11;7.05;;;6.03;;
14096;SDS011;7125;48.106;11.544;2022-07-23T02:07:38;7.45;;;5.75;;
14096;SDS011;7125;48.106;11.544;2022-07-23T02:10:07;6.22;;;5.63;;
14096;SDS011;7125;48.106;11.544;2022-07-23T02:12:36;6.05;;;5.55;;
14096;SDS011;7125;48.106;11.544;2022-07-23T02:15:03;7.30;;;5.47;;
14096;SDS011;7125;48.106;11.544;2022-07-23T02:17:31;7.00;;;5.97;;
14096;SDS011;7125;48.106;11.544;2022-07-23T02:20:00;5.72;;;5.07;;
14096;SDS011;7125;48.106;11.544;2022-07-23T02:22:27;5.47;;;5.03;;
14096;SDS011;7125;48.106;11.544;2022-07-23T02:24:54;5.07;;;4.57;;
14096;SDS011;7125;48.106;11.544;2022-07-23T02:27:22;7.18;;;4.55;;
14096;SDS011;7125;48.106;11.544;2022-07-23T02:29:49;4.65;;;4.03;;
14096;SDS011;7125;48.106;11.544;2022-07-23T02:32:16;4.22;;;3.72;;
14096;SDS011;7125;48.106;11.544;2022-07-23T02:34:43;3.40;;;3.10;;
14096;SDS011;7125;48.106;11.544;2022-07-23T02:37:11;3.90;;;3.58;;
14096;SDS011;7125;48.106;11.544;2022-07-23T02:39:39;2.97;;;2.65;;
14096;SDS011;7125;48.106;11.544;2022-07-23T02:42:06;4.70;;;2.70;;
14096;SDS011;7125;48.106;11.544;2022-07-23T02:44:35;3.47;;;3.17;;
14096;SDS011;7125;48.106;11.544;2022-07-23T02:47:02;5.78;;;3.30;;
14096;SDS011;7125;48.106;11.544;2022-07-23T02:49:29;3.65;;;3.35;;
14096;SDS011;7125;48.106;11.544;2022-07-23T02:51:56;4.53;;;3.78;;
14096;SDS011;7125;48.106;11.544;2022-07-23T02:54:23;6.93;;;3.90;;
14096;SDS011;7125;48.106;11.544;2022-07-23T02:56:51;7.68;;;4.07;;
14096;SDS011;7125;48.106;11.544;2022-07-23T02:59:21;7.05;;;4.05;;
14096;SDS011;7125;48.106;11.544;2022-07-23T03:01:49;4.90;;;3.83;;
14096;SDS011;7125;48.106;11.544;2022-07-23T03:04:17;5.18;;;4.68;;
14096;SDS011;7125;48.106;11.544;2022-07-23T03:06:44;6.13;;;4.85;;
14096;SDS011;7125;48.106;11.544;2022-07-23T03:09:11;6.97;;;5.18;;
14096;SDS011;7125;48.106;11.544;2022-07-23T03:11:38;5.97;;;4.95;;
14096;SDS011;7125;48.106;11.544;2022-07-23T03:14:05;5.72;;;5.15;;
14096;SDS011;7125;48.106;11.544;2022-07-23T03:16:34;6.22;;;5.03;;
14096;SDS011;7125;48.106;11.544;2022-07-23T03:19:02;5.95;;;5.45;;
14096;SDS011;7125;48.106;11.544;2022-07-23T03:21:29;9.07;;;5.82;;
14096;SDS011;7125;48.106;11.544;2022-07-23T03:23:56;6.72;;;5.43;;
14096;SDS011;7125;48.106;11.544;2022-07-23T03:26:23;5.20;;;4.72;;
14096;SDS011;7125;48.106;11.544;2022-07-23T03:28:51;6.53;;;5.93;;
14096;SDS011;7125;48.106;11.544;2022-07-23T03:31:18;6.00;;;5.60;;
14096;SDS011;7125;48.106;11.544;2022-07-23T03:33:45;6.20;;;5.60;;
14096;SDS011;7125;48.106;11.544;2022-07-23T03:36:13;5.78;;;5.28;;
14096;SDS011;7125;48.106;11.544;2022-07-23T03:38:43;5.57;;;5.07;;
14096;SDS011;7125;48.106;11.544;2022-07-23T03:41:10;7.20;;;6.57;;
14096;SDS011;7125;48.106;11.544;2022-07-23T03:43:37;7.40;;;6.78;;
14096;SDS011;7125;48.106;11.544;2022-07-23T03:46:04;7.13;;;6.38;;
14096;SDS011;7125;48.106;11.544;2022-07-23T03:48:30;6.18;;;5.68;;
14096;SDS011;7125;48.106;11.544;2022-07-23T03:50:58;8.07;;;6.55;;
14096;SDS011;7125;48.106;11.544;2022-07-23T03:53:26;6.97;;;6.38;;
14096;SDS011;7125;48.106;11.544;2022-07-23T03:55:53;7.18;;;6.47;;
14096;SDS011;7125;48.106;11.544;2022-07-23T03:58:20;9.40;;;6.35;;
14096;SDS011;7125;48.106;11.544;2022-07-23T04:00:47;7.57;;;6.70;;
14096;SDS011;7125;48.106;11.544;2022-07-23T04:03:14;7.07;;;6.47;;
14096;SDS011;7125;48.106;11.544;2022-07-23T04:05:42;6.97;;;6.38;;
14096;SDS011;7125;48.106;11.544;2022-07-23T04:08:12;8.27;;;7.20;;
14096;SDS011;7125;48.106;11.544;2022-07-23T04:10:43;7.93;;;7.15;;
14096;SDS011;7125;48.106;11.544;2022-07-23T04:13:12;7.68;;;7.07;;
14096;SDS011;7125;48.106;11.544;2022-07-23T04:15:40;7.32;;;6.65;;
14096;SDS011;7125;48.106;11.544;2022-07-23T04:18:07;6.88;;;6.20;;
14096;SDS011;7125;48.106;11.544;2022-07-23T04:20:43;7.82;;;6.68;;
14096;SDS011;7125;48.106;11.544;2022-07-23T04:23:10;8.50;;;6.85;;
14096;SDS011;7125;48.106;11.544;2022-07-23T04:25:38;7.55;;;6.85;;
14096;SDS011;7125;48.106;11.544;2022-07-23T04:28:06;5.72;;;5.28;;
14096;SDS011;7125;48.106;11.544;2022-07-23T04:30:34;7.00;;;6.40;;
14096;SDS011;7125;48.106;11.544;2022-07-23T04:33:02;7.57;;;6.43;;
14096;SDS011;7125;48.106;11.544;2022-07-23T04:35:31;6.97;;;6.32;;
14096;SDS011;7125;48.106;11.544;2022-07-23T04:38:09;6.38;;;5.85;;
14096;SDS011;7125;48.106;11.544;2022-07-23T04:40:37;7.53;;;6.90;;
14096;SDS011;7125;48.106;11.544;2022-07-23T04:43:06;7.25;;;6.72;;
14096;SDS011;7125;48.106;11.544;2022-07-23T04:45:39;8.10;;;7.40;;
14096;SDS011;7125;48.106;11.544;2022-07-23T04:48:06;8.50;;;7.65;;
14096;SDS011;7125;48.106;11.544;2022-07-23T04:50:33;8.52;;;7.85;;
14096;SDS011;7125;48.106;11.544;2022-07-23T04:53:00;7.75;;;7.13;;
14096;SDS011;7125;48.106;11.544;2022-07-23T04:55:28;6.93;;;6.30;;
14096;SDS011;7125;48.106;11.544;2022-07-23T04:57:55;7.95;;;7.30;;
14096;SDS011;7125;48.106;11.544;2022-07-23T05:00:23;8.88;;;7.20;;
14096;SDS011;7125;48.106;11.544;2022-07-23T05:02:50;8.15;;;7.45;;
14096;SDS011;7125;48.106;11.544;2022-07-23T05:05:17;7.97;;;7.18;;
14096;SDS011;7125;48.106;11.544;2022-07-23T05:07:44;7.43;;;6.82;;
14096;SDS011;7125;48.106;11.544;2022-07-23T05:10:11;7.35;;;6.70;;
14096;SDS011;7125;48.106;11.544;2022-07-23T05:12:37;8.10;;;6.93;;
14096;SDS011;7125;48.106;11.544;2022-07-23T05:15:04;7.43;;;6.75;;
14096;SDS011;7125;48.106;11.544;2022-07-23T05:17:33;8.85;;;8.02;;
14096;SDS011;7125;48.106;11.544;2022-07-23T05:20:02;6.97;;;6.38;;
14096;SDS011;7125;48.106;11.544;2022-07-23T05:22:29;7.10;;;6.50;;
14096;SDS011;7125;48.106;11.544;2022-07-23T05:24:56;7.35;;;6.50;;
14096;SDS011;7125;48.106;11.544;2022-07-23T05:27:23;7.13;;;6.50;;
14096;SDS011;7125;48.106;11.544;2022-07-23T05:29:50;8.52;;;7.30;;
14096;SDS011;7125;48.106;11.544;2022-07-23T05:32:17;8.07;;;7.47;;
14096;SDS011;7125;48.106;11.544;2022-07-23T05:34:54;7.88;;;7.18;;
14096;SDS011;7125;48.106;11.544;2022-07-23T05:37:20;6.78;;;6.28;;
14096;SDS011;7125;48.106;11.544;2022-07-23T05:39:47;7.70;;;7.10;;
14096;SDS011;7125;48.106;11.544;2022-07-23T05:42:16;7.22;;;6.45;;
14096;SDS011;7125;48.106;11.544;2022-07-23T05:44:43;7.50;;;6.80;;
14096;SDS011;7125;48.106;11.544;2022-07-23T05:47:11;7.25;;;6.53;;
14096;SDS011;7125;48.106;11.544;2022-07-23T05:49:38;8.70;;;7.93;;
14096;SDS011;7125;48.106;11.544;2022-07-23T05:52:25;7.85;;;7.25;;
14096;SDS011;7125;48.106;11.544;2022-07-23T05:55:10;7.30;;;6.68;;
14096;SDS011;7125;48.106;11.544;2022-07-23T05:57:38;8.27;;;7.45;;
14096;SDS011;7125;48.106;11.544;2022-07-23T06:00:06;7.47;;;6.63;;
14096;SDS011;7125;48.106;11.544;2022-07-23T06:02:39;7.00;;;6.50;;
14096;SDS011;7125;48.106;11.544;2022-07-23T06:05:09;8.23;;;7.53;;
14096;SDS011;7125;48.106;11.544;2022-07-23T06:07:39;7.55;;;6.95;;
14096;SDS011;7125;48.106;11.544;2022-07-23T06:10:06;7.72;;;7.13;;
14096;SDS011;7125;48.106;11.544;2022-07-23T06:12:34;7.95;;;7.18;;
14096;SDS011;7125;48.106;11.544;2022-07-23T06:15:02;7.93;;;7.13;;
14096;SDS011;7125;48.106;11.544;2022-07-23T06:17:30;8.02;;;7.38;;
14096;SDS011;7125;48.106;11.544;2022-07-23T06:19:57;9.25;;;8.32;;
14096;SDS011;7125;48.106;11.544;2022-07-23T06:22:24;11.23;;;7.72;;
14096;SDS011;7125;48.106;11.544;2022-07-23T06:24:52;8.35;;;7.50;;
14096;SDS011;7125;48.106;11.544;2022-07-23T06:27:20;9.48;;;8.30;;
14096;SDS011;7125;48.106;11.544;2022-07-23T06:29:47;11.25;;;8.02;;
14096;SDS011;7125;48.106;11.544;2022-07-23T06:32:14;7.90;;;7.20;;
14096;SDS011;7125;48.106;11.544;2022-07-23T06:34:42;8.35;;;7.55;;
14096;SDS011;7125;48.106;11.544;2022-07-23T06:37:09;10.18;;;8.52;;
14096;SDS011;7125;48.106;11.544;2022-07-23T06:39:35;9.05;;;8.18;;
14096;SDS011;7125;48.106;11.544;2022-07-23T06:42:04;9.15;;;7.10;;
14096;SDS011;7125;48.106;11.544;2022-07-23T06:44:37;8.35;;;7.55;;
14096;SDS011;7125;48.106;11.544;2022-07-23T06:47:06;8.25;;;7.55;;
14096;SDS011;7125;48.106;11.544;2022-07-23T06:49:34;9.27;;;8.48;;
14096;SDS011;7125;48.106;11.544;2022-07-23T06:52:01;8.77;;;7.97;;
14096;SDS011;7125;48.106;11.544;2022-07-23T06:54:27;9.20;;;8.30;;
14096;SDS011;7125;48.106;11.544;2022-07-23T06:56:54;8.60;;;7.80;;
14096;SDS011;7125;48.106;11.544;2022-07-23T06:59:22;9.70;;;8.30;;
14096;SDS011;7125;48.106;11.544;2022-07-23T07:01:49;10.27;;;8.35;;
14096;SDS011;7125;48.106;11.544;2022-07-23T07:04:16;11.25;;;8.50;;
14096;SDS011;7125;48.106;11.544;2022-07-23T07:06:43;10.52;;;9.57;;
14096;SDS011;7125;48.106;11.544;2022-07-23T07:09:10;8.63;;;7.82;;
14096;SDS011;7125;48.106;11.544;2022-07-23T07:11:37;9.43;;;8.25;;
14096;SDS011;7125;48.106;11.544;2022-07-23T07:14:03;9.52;;;8.73;;
14096;SDS011;7125;48.106;11.544;2022-07-23T07:16:32;9.35;;;8.52;;
14096;SDS011;7125;48.106;11.544;2022-07-23T07:18:59;8.93;;;8.23;;
14096;SDS011;7125;48.106;11.544;2022-07-23T07:21:26;9.10;;;8.32;;
14096;SDS011;7125;48.106;11.544;2022-07-23T07:23:53;8.98;;;8.27;;
14096;SDS011;7125;48.106;11.544;2022-07-23T07:26:19;9.10;;;8.27;;
14096;SDS011;7125;48.106;11.544;2022-07-23T07:28:46;9.55;;;8.68;;
14096;SDS011;7125;48.106;11.544;2022-07-23T07:31:13;10.48;;;9.63;;
14096;SDS011;7125;48.106;11.544;2022-07-23T07:33:41;9.40;;;8.55;;
14096;SDS011;7125;48.106;11.544;2022-07-23T07:36:08;9.02;;;8.13;;
14096;SDS011;7125;48.106;11.544;2022-07-23T07:38:35;10.18;;;9.27;;
14096;SDS011;7125;48.106;11.544;2022-07-23T07:41:02;9.70;;;8.77;;
14096;SDS011;7125;48.106;11.544;2022-07-23T07:43:29;11.40;;;8.80;;
14096;SDS011;7125;48.106;11.544;2022-07-23T07:45:56;9.57;;;8.77;;
14096;SDS011;7125;48.106;11.544;2022-07-23T07:48:22;9.43;;;8.60;;
14096;SDS011;7125;48.106;11.544;2022-07-23T07:50:51;11.75;;;8.40;;
14096;SDS011;7125;48.106;11.544;2022-07-23T07:53:17;9.90;;;8.63;;
14096;SDS011;7125;48.106;11.544;2022-07-23T07:55:44;9.15;;;8.32;;
14096;SDS011;7125;48.106;11.544;2022-07-23T07:58:11;35.58;;;32.95;;
14096;SDS011;7125;48.106;11.544;2022-07-23T08:00:38;18.42;;;16.83;;
14096;SDS011;7125;48.106;11.544;2022-07-23T08:03:05;10.45;;;9.45;;
14096;SDS011;7125;48.106;11.544;2022-07-23T08:05:32;9.38;;;8.57;;
14096;SDS011;7125;48.106;11.544;2022-07-23T08:08:00;10.07;;;9.07;;
14096;SDS011;7125;48.106;11.544;2022-07-23T08:10:28;8.65;;;7.85;;
14096;SDS011;7125;48.106;11.544;2022-07-23T08:12:57;7.78;;;6.95;;
14096;SDS011;7125;48.106;11.544;2022-07-23T08:15:26;9.70;;;8.80;;
14096;SDS011;7125;48.106;11.544;2022-07-23T08:17:54;9.95;;;8.27;;
14096;SDS011;7125;48.106;11.544;2022-07-23T08:20:22;8.57;;;7.78;;
14096;SDS011;7125;48.106;11.544;2022-07-23T08:22:50;8.68;;;7.88;;
14096;SDS011;7125;48.106;11.544;2022-07-23T08:25:22;10.40;;;7.55;;
14096;SDS011;7125;48.106;11.544;2022-07-23T08:27:50;8.75;;;8.10;;
14096;SDS011;7125;48.106;11.544;2022-07-23T08:30:17;8.88;;;8.07;;
14096;SDS011;7125;48.106;11.544;2022-07-23T08:32:52;9.75;;;8.38;;
14096;SDS011;7125;48.106;11.544;2022-07-23T08:35:24;16.33;;;7.95;;
14096;SDS011;7125;48.106;11.544;2022-07-23T08:37:54;8.38;;;7.68;;
14096;SDS011;7125;48.106;11.544;2022-07-23T08:40:22;9.05;;;7.68;;
14096;SDS011;7125;48.106;11.544;2022-07-23T08:42:51;8.27;;;7.13;;
14096;SDS011;7125;48.106;11.544;2022-07-23T08:45:19;6.82;;;6.32;;
14096;SDS011;7125;48.106;11.544;2022-07-23T08:47:48;8.73;;;7.93;;
14096;SDS011;7125;48.106;11.544;2022-07-23T08:50:16;8.63;;;7.70;;
14096;SDS011;7125;48.106;11.544;2022-07-23T08:52:43;8.88;;;7.07;;
14096;SDS011;7125;48.106;11.544;2022-07-23T08:55:10;8.05;;;7.45;;
14096;SDS011;7125;48.106;11.544;2022-07-23T08:57:39;8.90;;;7.22;;
14096;SDS011;7125;48.106;11.544;2022-07-23T09:00:06;7.10;;;6.50;;
14096;SDS011;7125;48.106;11.544;2022-07-23T09:02:40;8.23;;;6.80;;
14096;SDS011;7125;48.106;11.544;2022-07-23T09:05:08;7.20;;;6.70;;
14096;SDS011;7125;48.106;11.544;2022-07-23T09:07:36;6.60;;;6.10;;
14096;SDS011;7125;48.106;11.544;2022-07-23T09:10:06;6.22;;;5.82;;
14096;SDS011;7125;48.106;11.544;2022-07-23T09:12:34;6.13;;;5.63;;
14096;SDS011;7125;48.106;11.544;2022-07-23T09:15:07;6.35;;;5.28;;
14096;SDS011;7125;48.106;11.544;2022-07-23T09:17:36;7.05;;;6.45;;
14096;SDS011;7125;48.106;11.544;2022-07-23T09:20:09;6.82;;;6.30;;
14096;SDS011;7125;48.106;11.544;2022-07-23T09:22:37;7.35;;;6.57;;
14096;SDS011;7125;48.106;11.544;2022-07-23T09:25:07;7.20;;;6.60;;
14096;SDS011;7125;48.106;11.544;2022-07-23T09:27:46;5.75;;;5.25;;
14096;SDS011;7125;48.106;11.544;2022-07-23T09:30:16;7.38;;;6.78;;
14096;SDS011;7125;48.106;11.544;2022-07-23T09:32:43;7.45;;;6.72;;
14096;SDS011;7125;48.106;11.544;2022-07-23T09:35:10;7.30;;;6.70;;
14096;SDS011;7125;48.106;11.544;2022-07-23T09:37:36;6.97;;;6.38;;
14096;SDS011;7125;48.106;11.544;2022-07-23T09:40:04;7.00;;;6.40;;
14096;SDS011;7125;48.106;11.544;2022-07-23T09:42:33;9.95;;;7.18;;
14096;SDS011;7125;48.106;11.544;2022-07-23T09:45:01;7.65;;;6.95;;
14096;SDS011;7125;48.106;11.544;2022-07-23T09:47:30;7.07;;;6.47;;
14096;SDS011;7125;48.106;11.544;2022-07-23T09:49:58;9.55;;;6.60;;
14096;SDS011;7125;48.106;11.544;2022-07-23T09:52:26;6.88;;;6.28;;
14096;SDS011;7125;48.106;11.544;2022-07-23T09:54:57;7.97;;;5.70;;
14096;SDS011;7125;48.106;11.544;2022-07-23T09:57:26;5.63;;;5.20;;
14096;SDS011;7125;48.106;11.544;2022-07-23T09:59:53;7.45;;;5.75;;
14096;SDS011;7125;48.106;11.544;2022-07-23T10:02:24;5.40;;;5.00;;
14096;SDS011;7125;48.106;11.544;2022-07-23T10:05:15;6.20;;;5.60;;
14096;SDS011;7125;48.106;11.544;2022-07-23T10:08:05;5.78;;;5.38;;
14096;SDS011;7125;48.106;11.544;2022-07-23T10:10:53;8.73;;;4.72;;
14096;SDS011;7125;48.106;11.544;2022-07-23T10:13:27;5.32;;;4.93;;
14096;SDS011;7125;48.106;11.544;2022-07-23T10:16:12;4.72;;;4.32;;
14096;SDS011;7125;48.106;11.544;2022-07-23T10:18:39;5.70;;;5.18;;
14096;SDS011;7125;48.106;11.544;2022-07-23T10:21:08;5.25;;;4.85;;
14096;SDS011;7125;48.106;11.544;2022-07-23T10:23:37;6.95;;;5.05;;
14096;SDS011;7125;48.106;11.544;2022-07-23T10:26:10;5.32;;;4.88;;
14096;SDS011;7125;48.106;11.544;2022-07-23T10:28:51;5.47;;;5.00;;
14096;SDS011;7125;48.106;11.544;2022-07-23T10:31:30;6.13;;;5.45;;
14096;SDS011;7125;48.106;11.544;2022-07-23T10:34:07;5.45;;;5.03;;
14096;SDS011;7125;48.106;11.544;2022-07-23T10:36:47;5.22;;;4.80;;
14096;SDS011;7125;48.106;11.544;2022-07-23T10:39:19;4.65;;;4.25;;
14096;SDS011;7125;48.106;11.544;2022-07-23T10:41:48;5.20;;;4.70;;
14096;SDS011;7125;48.106;11.544;2022-07-23T10:44:18;5.45;;;4.95;;
14096;SDS011;7125;48.106;11.544;2022-07-23T10:46:55;6.03;;;5.03;;
14096;SDS011;7125;48.106;11.544;2022-07-23T10:49:41;5.75;;;5.15;;
14096;SDS011;7125;48.106;11.544;2022-07-23T10:52:16;5.18;;;4.68;;
14096;SDS011;7125;48.106;11.544;2022-07-23T10:54:49;5.18;;;4.70;;
14096;SDS011;7125;48.106;11.544;2022-07-23T10:57:18;5.13;;;4.65;;
14096;SDS011;7125;48.106;11.544;2022-07-23T11:02:43;4.97;;;4.57;;
14096;SDS011;7125;48.106;11.544;2022-07-23T11:05:12;5.55;;;5.10;;
14096;SDS011;7125;48.106;11.544;2022-07-23T11:10:52;5.43;;;4.93;;
14096;SDS011;7125;48.106;11.544;2022-07-23T11:13:28;5.25;;;4.75;;
14096;SDS011;7125;48.106;11.544;2022-07-23T11:18:55;5.90;;;5.30;;
14096;SDS011;7125;48.106;11.544;2022-07-23T11:21:43;8.50;;;5.75;;
14096;SDS011;7125;48.106;11.544;2022-07-23T11:24:11;5.68;;;5.18;;
14096;SDS011;7125;48.106;11.544;2022-07-23T11:26:45;8.57;;;6.07;;
14096;SDS011;7125;48.106;11.544;2022-07-23T11:32:18;5.93;;;5.47;;
14096;SDS011;7125;48.106;11.544;2022-07-23T11:34:50;6.32;;;5.68;;
14096;SDS011;7125;48.106;11.544;2022-07-23T11:40:11;5.93;;;5.43;;
14096;SDS011;7125;48.106;11.544;2022-07-23T11:42:41;5.97;;;5.03;;
14096;SDS011;7125;48.106;11.544;2022-07-23T11:45:18;6.10;;;5.25;;
14096;SDS011;7125;48.106;11.544;2022-07-23T11:47:45;6.28;;;5.75;;
14096;SDS011;7125;48.106;11.544;2022-07-23T11:50:12;6.40;;;5.65;;
14096;SDS011;7125;48.106;11.544;2022-07-23T11:52:39;6.80;;;6.10;;
14096;SDS011;7125;48.106;11.544;2022-07-23T11:55:07;5.50;;;5.05;;
14096;SDS011;7125;48.106;11.544;2022-07-23T11:57:35;5.72;;;5.25;;
14096;SDS011;7125;48.106;11.544;2022-07-23T12:00:05;7.32;;;6.72;;
14096;SDS011;7125;48.106;11.544;2022-07-23T12:02:38;5.95;;;5.45;;
14096;SDS011;7125;48.106;11.544;2022-07-23T12:05:06;6.25;;;5.65;;
14096;SDS011;7125;48.106;11.544;2022-07-23T12:07:35;7.00;;;5.47;;
14096;SDS011;7125;48.106;11.544;2022-07-23T12:10:04;5.78;;;4.90;;
14096;SDS011;7125;48.106;11.544;2022-07-23T12:12:36;7.38;;;6.53;;
14096;SDS011;7125;48.106;11.544;2022-07-23T12:15:05;7.15;;;6.55;;
14096;SDS011;7125;48.106;11.544;2022-07-23T12:17:34;6.30;;;5.80;;
14096;SDS011;7125;48.106;11.544;2022-07-23T12:20:03;7.13;;;6.35;;
14096;SDS011;7125;48.106;11.544;2022-07-23T12:22:36;8.75;;;6.57;;
14096;SDS011;7125;48.106;11.544;2022-07-23T12:25:06;6.60;;;5.90;;
14096;SDS011;7125;48.106;11.544;2022-07-23T12:27:38;6.95;;;6.35;;
14096;SDS011;7125;48.106;11.544;2022-07-23T12:30:16;6.10;;;5.50;;
14096;SDS011;7125;48.106;11.544;2022-07-23T12:32:51;6.45;;;5.55;;
14096;SDS011;7125;48.106;11.544;2022-07-23T12:35:19;6.85;;;6.15;;
14096;SDS011;7125;48.106;11.544;2022-07-23T12:37:48;6.43;;;5.82;;
14096;SDS011;7125;48.106;11.544;2022-07-23T12:40:27;10.40;;;6.57;;
14096;SDS011;7125;48.106;11.544;2022-07-23T12:42:55;6.30;;;5.72;;
14096;SDS011;7125;48.106;11.544;2022-07-23T12:45:25;8.45;;;6.10;;
14096;SDS011;7125;48.106;11.544;2022-07-23T12:47:56;8.25;;;6.03;;
14096;SDS011;7125;48.106;11.544;2022-07-23T12:50:39;5.95;;;5.45;;
14096;SDS011;7125;48.106;11.544;2022-07-23T12:53:09;6.00;;;5.50;;
14096;SDS011;7125;48.106;11.544;2022-07-23T12:55:38;5.68;;;5.13;;
14096;SDS011;7125;48.106;11.544;2022-07-23T12:58:07;6.93;;;5.88;;
14096;SDS011;7125;48.106;11.544;2022-07-23T13:03:34;6.53;;;5.78;;
14096;SDS011;7125;48.106;11.544;2022-07-23T13:06:03;7.28;;;6.05;;
14096;SDS011;7125;48.106;11.544;2022-07-23T13:08:32;6.68;;;5.97;;
14096;SDS011;7125;48.106;11.544;2022-07-23T13:11:00;6.03;;;5.43;;
14096;SDS011;7125;48.106;11.544;2022-07-23T13:13:28;6.57;;;6.00;;
14096;SDS011;7125;48.106;11.544;2022-07-23T13:15:56;6.40;;;5.60;;
14096;SDS011;7125;48.106;11.544;2022-07-23T13:18:26;8.18;;;6.53;;
14096;SDS011;7125;48.106;11.544;2022-07-23T13:20:54;7.22;;;6.50;;
14096;SDS011;7125;48.106;11.544;2022-07-23T13:23:21;6.53;;;5.32;;
14096;SDS011;7125;48.106;11.544;2022-07-23T13:25:48;6.35;;;5.70;;
14096;SDS011;7125;48.106;11.544;2022-07-23T13:28:15;6.03;;;5.43;;
14096;SDS011;7125;48.106;11.544;2022-07-23T13:30:43;6.55;;;5.93;;
14096;SDS011;7125;48.106;11.544;2022-07-23T13:33:11;6.28;;;5.78;;
14096;SDS011;7125;48.106;11.544;2022-07-23T13:35:39;7.80;;;7.00;;
14096;SDS011;7125;48.106;11.544;2022-07-23T13:38:06;5.85;;;5.35;;
14096;SDS011;7125;48.106;11.544;2022-07-23T13:40:36;6.88;;;6.28;;
14096;SDS011;7125;48.106;11.544;2022-07-23T13:43:05;6.60;;;6.07;;
14096;SDS011;7125;48.106;11.544;2022-07-23T13:45:33;7.28;;;6.57;;
14096;SDS011;7125;48.106;11.544;2022-07-23T13:48:00;6.22;;;5.63;;
14096;SDS011;7125;48.106;11.544;2022-07-23T13:50:28;5.78;;;5.28;;
14096;SDS011;7125;48.106;11.544;2022-07-23T13:52:56;6.22;;;5.72;;
14096;SDS011;7125;48.106;11.544;2022-07-23T13:55:23;6.60;;;6.00;;
14096;SDS011;7125;48.106;11.544;2022-07-23T13:57:49;6.43;;;5.78;;
14096;SDS011;7125;48.106;11.544;2022-07-23T14:00:16;6.20;;;5.72;;
14096;SDS011;7125;48.106;11.544;2022-07-23T14:02:43;6.65;;;6.05;;
14096;SDS011;7125;48.106;11.544;2022-07-23T14:05:10;6.57;;;6.07;;
14096;SDS011;7125;48.106;11.544;2022-07-23T14:07:38;5.63;;;5.13;;
14096;SDS011;7125;48.106;11.544;2022-07-23T14:10:09;7.53;;;5.85;;
14096;SDS011;7125;48.106;11.544;2022-07-23T14:12:36;6.10;;;5.60;;
14096;SDS011;7125;48.106;11.544;2022-07-23T14:15:03;6.38;;;5.85;;
14096;SDS011;7125;48.106;11.544;2022-07-23T14:17:33;8.65;;;5.50;;
14096;SDS011;7125;48.106;11.544;2022-07-23T14:20:00;6.00;;;5.43;;
14096;SDS011;7125;48.106;11.544;2022-07-23T14:22:27;6.55;;;6.05;;
14096;SDS011;7125;48.106;11.544;2022-07-23T14:24:54;6.90;;;6.18;;
14096;SDS011;7125;48.106;11.544;2022-07-23T14:27:24;6.80;;;6.20;;
14096;SDS011;7125;48.106;11.544;2022-07-23T14:29:51;7.55;;;6.25;;
14096;SDS011;7125;48.106;11.544;2022-07-23T14:32:18;9.68;;;6.07;;
14096;SDS011;7125;48.106;11.544;2022-07-23T14:34:45;6.95;;;6.35;;
14096;SDS011;7125;48.106;11.544;2022-07-23T14:37:13;5.65;;;5.15;;
14096;SDS011;7125;48.106;11.544;2022-07-23T14:39:40;6.22;;;5.72;;
14096;SDS011;7125;48.106;11.544;2022-07-23T14:42:08;7.05;;;6.47;;
14096;SDS011;7125;48.106;11.544;2022-07-23T14:44:36;6.95;;;6.35;;
14096;SDS011;7125;48.106;11.544;2022-07-23T14:47:04;7.60;;;5.68;;
14096;SDS011;7125;48.106;11.544;2022-07-23T14:49:32;6.38;;;5.90;;
14096;SDS011;7125;48.106;11.544;2022-07-23T14:51:59;7.82;;;7.13;;
14096;SDS011;7125;48.106;11.544;2022-07-23T14:54:27;6.90;;;6.30;;
14096;SDS011;7125;48.106;11.544;2022-07-23T14:56:54;7.40;;;6.80;;
14096;SDS011;7125;48.106;11.544;2022-07-23T14:59:22;6.88;;;5.38;;
14096;SDS011;7125;48.106;11.544;2022-07-23T15:01:51;8.20;;;7.43;;
14096;SDS011;7125;48.106;11.544;2022-07-23T15:04:18;9.10;;;6.65;;
14096;SDS011;7125;48.106;11.544;2022-07-23T15:06:45;7.47;;;6.78;;
14096;SDS011;7125;48.106;11.544;2022-07-23T15:09:12;6.93;;;6.18;;
14096;SDS011;7125;48.106;11.544;2022-07-23T15:11:40;7.22;;;6.57;;
14096;SDS011;7125;48.106;11.544;2022-07-23T15:14:07;7.88;;;7.10;;